sensor_id;sensor_type;location;lat;lon;timestamp;P1;durP1;ratioP1;P2;durP2;ratioP2
53062;SDS011;40529;52.172;10.548;2023-04-03T00:00:44;6.68;;;2.08;;
53062;SDS011;40529;52.172;10.548;2023-04-03T00:03:10;5.05;;;1.52;;
53062;SDS011;40529;52.172;10.548;2023-04-03T00:05:36;6.40;;;1.73;;
53062;SDS011;40529;52.172;10.548;2023-04-03T00:08:02;4.00;;;1.73;;
53062;SDS011;40529;52.172;10.548;2023-04-03T00:10:29;4.97;;;1.55;;
53062;SDS011;40529;52.172;10.548;2023-04-03T00:12:55;5.22;;;1.63;;
53062;SDS011;40529;52.172;10.548;2023-04-03T00:15:21;5.47;;;1.70;;
53062;SDS011;40529;52.172;10.548;2023-04-03T00:17:47;4.72;;;1.70;;
53062;SDS011;40529;52.172;10.548;2023-04-03T00:20:13;5.25;;;1.73;;
53062;SDS011;40529;52.172;10.548;2023-04-03T00:22:40;5.47;;;2.05;;
53062;SDS011;40529;52.172;10.548;2023-04-03T00:25:06;3.63;;;1.40;;
53062;SDS011;40529;52.172;10.548;2023-04-03T00:27:32;6.00;;;1.67;;
53062;SDS011;40529;52.172;10.548;2023-04-03T00:29:58;6.85;;;2.10;;
53062;SDS011;40529;52.172;10.548;2023-04-03T00:32:24;7.43;;;2.00;;
53062;SDS011;40529;52.172;10.548;2023-04-03T00:34:50;7.93;;;2.10;;
53062;SDS011;40529;52.172;10.548;2023-04-03T00:37:16;4.53;;;1.67;;
53062;SDS011;40529;52.172;10.548;2023-04-03T00:39:42;5.38;;;1.77;;
53062;SDS011;40529;52.172;10.548;2023-04-03T00:42:08;5.55;;;1.77;;
53062;SDS011;40529;52.172;10.548;2023-04-03T00:47:01;4.30;;;1.52;;
53062;SDS011;40529;52.172;10.548;2023-04-03T00:49:28;5.47;;;1.88;;
53062;SDS011;40529;52.172;10.548;2023-04-03T00:51:54;4.20;;;2.03;;
53062;SDS011;40529;52.172;10.548;2023-04-03T00:54:21;6.80;;;1.80;;
53062;SDS011;40529;52.172;10.548;2023-04-03T00:56:47;6.30;;;1.90;;
53062;SDS011;40529;52.172;10.548;2023-04-03T00:59:18;4.32;;;1.45;;
53062;SDS011;40529;52.172;10.548;2023-04-03T01:01:48;3.72;;;1.75;;
53062;SDS011;40529;52.172;10.548;2023-04-03T01:04:47;4.82;;;1.80;;
53062;SDS011;40529;52.172;10.548;2023-04-03T01:07:08;7.40;;;1.88;;
53062;SDS011;40529;52.172;10.548;2023-04-03T01:09:35;5.63;;;1.90;;
53062;SDS011;40529;52.172;10.548;2023-04-03T01:14:46;7.13;;;1.77;;
53062;SDS011;40529;52.172;10.548;2023-04-03T01:19:57;6.18;;;1.77;;
53062;SDS011;40529;52.172;10.548;2023-04-03T01:22:28;4.70;;;1.77;;
53062;SDS011;40529;52.172;10.548;2023-04-03T01:24:56;5.70;;;2.28;;
53062;SDS011;40529;52.172;10.548;2023-04-03T01:27:22;4.35;;;1.70;;
53062;SDS011;40529;52.172;10.548;2023-04-03T01:29:48;8.98;;;1.70;;
53062;SDS011;40529;52.172;10.548;2023-04-03T01:32:15;7.50;;;2.00;;
53062;SDS011;40529;52.172;10.548;2023-04-03T01:34:41;5.85;;;1.80;;
53062;SDS011;40529;52.172;10.548;2023-04-03T01:37:07;10.82;;;1.90;;
53062;SDS011;40529;52.172;10.548;2023-04-03T01:39:33;4.32;;;1.60;;
53062;SDS011;40529;52.172;10.548;2023-04-03T01:41:59;8.70;;;1.90;;
53062;SDS011;40529;52.172;10.548;2023-04-03T01:44:25;4.03;;;1.50;;
53062;SDS011;40529;52.172;10.548;2023-04-03T01:46:51;5.30;;;1.80;;
53062;SDS011;40529;52.172;10.548;2023-04-03T01:49:17;3.33;;;1.60;;
53062;SDS011;40529;52.172;10.548;2023-04-03T01:51:43;4.72;;;2.08;;
53062;SDS011;40529;52.172;10.548;2023-04-03T01:54:09;6.13;;;1.98;;
53062;SDS011;40529;52.172;10.548;2023-04-03T01:56:35;9.45;;;2.22;;
53062;SDS011;40529;52.172;10.548;2023-04-03T01:59:02;3.03;;;1.30;;
53062;SDS011;40529;52.172;10.548;2023-04-03T02:01:28;6.78;;;1.77;;
53062;SDS011;40529;52.172;10.548;2023-04-03T02:03:54;7.93;;;2.00;;
53062;SDS011;40529;52.172;10.548;2023-04-03T02:06:20;7.28;;;2.03;;
53062;SDS011;40529;52.172;10.548;2023-04-03T02:08:46;3.50;;;1.60;;
53062;SDS011;40529;52.172;10.548;2023-04-03T02:11:12;4.80;;;1.80;;
53062;SDS011;40529;52.172;10.548;2023-04-03T02:13:38;2.75;;;1.70;;
53062;SDS011;40529;52.172;10.548;2023-04-03T02:16:08;5.65;;;1.80;;
53062;SDS011;40529;52.172;10.548;2023-04-03T02:18:34;8.23;;;1.95;;
53062;SDS011;40529;52.172;10.548;2023-04-03T02:21:00;6.88;;;2.00;;
53062;SDS011;40529;52.172;10.548;2023-04-03T02:23:26;6.05;;;2.00;;
53062;SDS011;40529;52.172;10.548;2023-04-03T02:25:53;6.50;;;2.00;;
53062;SDS011;40529;52.172;10.548;2023-04-03T02:28:19;6.85;;;1.95;;
53062;SDS011;40529;52.172;10.548;2023-04-03T02:30:45;4.57;;;1.95;;
53062;SDS011;40529;52.172;10.548;2023-04-03T02:33:11;5.65;;;1.73;;
53062;SDS011;40529;52.172;10.548;2023-04-03T02:35:39;8.18;;;1.77;;
53062;SDS011;40529;52.172;10.548;2023-04-03T02:38:05;4.68;;;2.03;;
53062;SDS011;40529;52.172;10.548;2023-04-03T02:40:31;7.20;;;2.08;;
53062;SDS011;40529;52.172;10.548;2023-04-03T02:42:57;5.43;;;2.00;;
53062;SDS011;40529;52.172;10.548;2023-04-03T02:45:23;7.70;;;1.75;;
53062;SDS011;40529;52.172;10.548;2023-04-03T02:47:50;8.30;;;1.70;;
53062;SDS011;40529;52.172;10.548;2023-04-03T02:50:16;6.22;;;1.83;;
53062;SDS011;40529;52.172;10.548;2023-04-03T02:52:42;5.88;;;2.00;;
53062;SDS011;40529;52.172;10.548;2023-04-03T02:55:08;4.55;;;2.00;;
53062;SDS011;40529;52.172;10.548;2023-04-03T02:57:34;6.50;;;1.85;;
53062;SDS011;40529;52.172;10.548;2023-04-03T03:00:00;7.13;;;1.88;;
53062;SDS011;40529;52.172;10.548;2023-04-03T03:02:26;5.63;;;2.20;;
53062;SDS011;40529;52.172;10.548;2023-04-03T03:04:52;6.47;;;1.80;;
53062;SDS011;40529;52.172;10.548;2023-04-03T03:07:18;6.25;;;2.13;;
53062;SDS011;40529;52.172;10.548;2023-04-03T03:09:44;7.75;;;1.90;;
53062;SDS011;40529;52.172;10.548;2023-04-03T03:12:10;6.05;;;1.58;;
53062;SDS011;40529;52.172;10.548;2023-04-03T03:14:36;3.45;;;1.73;;
53062;SDS011;40529;52.172;10.548;2023-04-03T03:17:02;6.85;;;1.77;;
53062;SDS011;40529;52.172;10.548;2023-04-03T03:19:28;6.57;;;1.70;;
53062;SDS011;40529;52.172;10.548;2023-04-03T03:21:55;3.75;;;1.60;;
53062;SDS011;40529;52.172;10.548;2023-04-03T03:24:21;4.65;;;1.60;;
53062;SDS011;40529;52.172;10.548;2023-04-03T03:26:47;7.57;;;2.00;;
53062;SDS011;40529;52.172;10.548;2023-04-03T03:29:13;3.63;;;2.00;;
53062;SDS011;40529;52.172;10.548;2023-04-03T03:31:39;7.55;;;1.77;;
53062;SDS011;40529;52.172;10.548;2023-04-03T03:34:05;2.47;;;1.50;;
53062;SDS011;40529;52.172;10.548;2023-04-03T03:36:31;6.38;;;1.88;;
53062;SDS011;40529;52.172;10.548;2023-04-03T03:38:58;5.85;;;1.88;;
53062;SDS011;40529;52.172;10.548;2023-04-03T03:41:24;9.27;;;1.70;;
53062;SDS011;40529;52.172;10.548;2023-04-03T03:43:50;5.63;;;1.83;;
53062;SDS011;40529;52.172;10.548;2023-04-03T03:46:16;4.57;;;1.83;;
53062;SDS011;40529;52.172;10.548;2023-04-03T03:48:42;6.65;;;2.00;;
53062;SDS011;40529;52.172;10.548;2023-04-03T03:51:08;5.45;;;1.80;;
53062;SDS011;40529;52.172;10.548;2023-04-03T03:53:34;3.22;;;1.90;;
53062;SDS011;40529;52.172;10.548;2023-04-03T03:56:00;4.78;;;1.70;;
53062;SDS011;40529;52.172;10.548;2023-04-03T03:58:26;4.90;;;1.67;;
53062;SDS011;40529;52.172;10.548;2023-04-03T04:00:52;3.85;;;2.00;;
53062;SDS011;40529;52.172;10.548;2023-04-03T04:03:18;4.32;;;1.65;;
53062;SDS011;40529;52.172;10.548;2023-04-03T04:05:45;8.55;;;2.25;;
53062;SDS011;40529;52.172;10.548;2023-04-03T04:08:11;7.57;;;2.10;;
53062;SDS011;40529;52.172;10.548;2023-04-03T04:10:38;5.80;;;1.80;;
53062;SDS011;40529;52.172;10.548;2023-04-03T04:13:04;6.18;;;2.00;;
53062;SDS011;40529;52.172;10.548;2023-04-03T04:15:30;5.03;;;2.00;;
53062;SDS011;40529;52.172;10.548;2023-04-03T04:17:56;3.08;;;1.55;;
53062;SDS011;40529;52.172;10.548;2023-04-03T04:20:22;8.27;;;2.30;;
53062;SDS011;40529;52.172;10.548;2023-04-03T04:22:48;10.43;;;2.67;;
53062;SDS011;40529;52.172;10.548;2023-04-03T04:25:14;3.90;;;2.30;;
53062;SDS011;40529;52.172;10.548;2023-04-03T04:27:40;3.53;;;1.77;;
53062;SDS011;40529;52.172;10.548;2023-04-03T04:30:06;5.47;;;1.70;;
53062;SDS011;40529;52.172;10.548;2023-04-03T04:32:33;10.27;;;1.95;;
53062;SDS011;40529;52.172;10.548;2023-04-03T04:34:59;13.13;;;2.10;;
53062;SDS011;40529;52.172;10.548;2023-04-03T04:37:26;5.15;;;1.60;;
53062;SDS011;40529;52.172;10.548;2023-04-03T04:39:52;4.70;;;1.70;;
53062;SDS011;40529;52.172;10.548;2023-04-03T04:42:18;2.90;;;1.60;;
53062;SDS011;40529;52.172;10.548;2023-04-03T04:44:44;6.97;;;2.03;;
53062;SDS011;40529;52.172;10.548;2023-04-03T04:47:10;7.63;;;1.73;;
53062;SDS011;40529;52.172;10.548;2023-04-03T04:49:36;5.47;;;1.75;;
53062;SDS011;40529;52.172;10.548;2023-04-03T04:52:02;5.72;;;1.63;;
53062;SDS011;40529;52.172;10.548;2023-04-03T04:54:28;6.07;;;1.83;;
53062;SDS011;40529;52.172;10.548;2023-04-03T04:56:54;9.80;;;3.00;;
53062;SDS011;40529;52.172;10.548;2023-04-03T04:59:20;7.82;;;2.20;;
53062;SDS011;40529;52.172;10.548;2023-04-03T05:01:46;7.15;;;2.78;;
53062;SDS011;40529;52.172;10.548;2023-04-03T05:04:12;3.95;;;1.75;;
53062;SDS011;40529;52.172;10.548;2023-04-03T05:06:38;5.03;;;1.83;;
53062;SDS011;40529;52.172;10.548;2023-04-03T05:09:04;4.03;;;1.90;;
53062;SDS011;40529;52.172;10.548;2023-04-03T05:11:31;14.93;;;3.03;;
53062;SDS011;40529;52.172;10.548;2023-04-03T05:13:57;9.10;;;3.40;;
53062;SDS011;40529;52.172;10.548;2023-04-03T05:16:23;4.82;;;1.60;;
53062;SDS011;40529;52.172;10.548;2023-04-03T05:18:49;7.63;;;2.10;;
53062;SDS011;40529;52.172;10.548;2023-04-03T05:21:15;6.03;;;2.00;;
53062;SDS011;40529;52.172;10.548;2023-04-03T05:23:43;6.43;;;1.77;;
53062;SDS011;40529;52.172;10.548;2023-04-03T05:26:09;7.57;;;2.10;;
53062;SDS011;40529;52.172;10.548;2023-04-03T05:28:35;4.72;;;1.40;;
53062;SDS011;40529;52.172;10.548;2023-04-03T05:31:01;4.88;;;1.92;;
53062;SDS011;40529;52.172;10.548;2023-04-03T05:33:28;6.72;;;1.70;;
53062;SDS011;40529;52.172;10.548;2023-04-03T05:35:54;6.05;;;1.98;;
53062;SDS011;40529;52.172;10.548;2023-04-03T05:38:20;4.88;;;1.70;;
53062;SDS011;40529;52.172;10.548;2023-04-03T05:40:46;6.05;;;2.50;;
53062;SDS011;40529;52.172;10.548;2023-04-03T05:43:12;7.82;;;2.05;;
53062;SDS011;40529;52.172;10.548;2023-04-03T05:45:38;4.90;;;2.28;;
53062;SDS011;40529;52.172;10.548;2023-04-03T05:48:04;4.95;;;2.05;;
53062;SDS011;40529;52.172;10.548;2023-04-03T05:50:30;5.32;;;2.00;;
53062;SDS011;40529;52.172;10.548;2023-04-03T05:52:57;6.55;;;2.22;;
53062;SDS011;40529;52.172;10.548;2023-04-03T05:55:23;5.55;;;1.65;;
53062;SDS011;40529;52.172;10.548;2023-04-03T05:57:50;7.55;;;1.80;;
53062;SDS011;40529;52.172;10.548;2023-04-03T06:00:16;8.43;;;1.85;;
53062;SDS011;40529;52.172;10.548;2023-04-03T06:02:42;3.88;;;1.50;;
53062;SDS011;40529;52.172;10.548;2023-04-03T06:05:09;5.53;;;1.63;;
53062;SDS011;40529;52.172;10.548;2023-04-03T06:07:37;6.25;;;1.77;;
53062;SDS011;40529;52.172;10.548;2023-04-03T06:10:03;7.53;;;1.90;;
53062;SDS011;40529;52.172;10.548;2023-04-03T06:12:30;6.55;;;1.48;;
53062;SDS011;40529;52.172;10.548;2023-04-03T06:14:56;3.85;;;1.90;;
53062;SDS011;40529;52.172;10.548;2023-04-03T06:17:23;5.65;;;1.70;;
53062;SDS011;40529;52.172;10.548;2023-04-03T06:19:49;4.13;;;1.73;;
53062;SDS011;40529;52.172;10.548;2023-04-03T06:22:15;6.45;;;1.95;;
53062;SDS011;40529;52.172;10.548;2023-04-03T06:24:41;9.80;;;2.17;;
53062;SDS011;40529;52.172;10.548;2023-04-03T06:27:09;4.35;;;3.35;;
53062;SDS011;40529;52.172;10.548;2023-04-03T06:29:35;8.55;;;2.33;;
53062;SDS011;40529;52.172;10.548;2023-04-03T06:32:02;4.25;;;2.25;;
53062;SDS011;40529;52.172;10.548;2023-04-03T06:34:28;5.50;;;2.35;;
53062;SDS011;40529;52.172;10.548;2023-04-03T06:36:54;4.15;;;1.90;;
53062;SDS011;40529;52.172;10.548;2023-04-03T06:39:20;8.32;;;2.20;;
53062;SDS011;40529;52.172;10.548;2023-04-03T06:41:50;4.55;;;2.03;;
53062;SDS011;40529;52.172;10.548;2023-04-03T06:44:16;6.03;;;1.65;;
53062;SDS011;40529;52.172;10.548;2023-04-03T06:46:42;7.55;;;1.95;;
53062;SDS011;40529;52.172;10.548;2023-04-03T06:49:09;2.80;;;1.70;;
53062;SDS011;40529;52.172;10.548;2023-04-03T06:51:35;7.13;;;1.80;;
53062;SDS011;40529;52.172;10.548;2023-04-03T06:54:01;9.20;;;2.28;;
53062;SDS011;40529;52.172;10.548;2023-04-03T06:56:28;6.53;;;2.28;;
53062;SDS011;40529;52.172;10.548;2023-04-03T06:58:55;6.35;;;1.80;;
53062;SDS011;40529;52.172;10.548;2023-04-03T07:01:23;4.38;;;1.88;;
53062;SDS011;40529;52.172;10.548;2023-04-03T07:03:50;3.67;;;1.63;;
53062;SDS011;40529;52.172;10.548;2023-04-03T07:06:16;8.00;;;2.03;;
53062;SDS011;40529;52.172;10.548;2023-04-03T07:08:43;7.00;;;2.00;;
53062;SDS011;40529;52.172;10.548;2023-04-03T07:11:10;9.50;;;2.30;;
53062;SDS011;40529;52.172;10.548;2023-04-03T07:13:37;9.20;;;2.53;;
53062;SDS011;40529;52.172;10.548;2023-04-03T07:16:03;3.45;;;1.50;;
53062;SDS011;40529;52.172;10.548;2023-04-03T07:18:30;4.03;;;1.52;;
53062;SDS011;40529;52.172;10.548;2023-04-03T07:20:56;3.33;;;1.38;;
53062;SDS011;40529;52.172;10.548;2023-04-03T07:23:23;5.28;;;1.55;;
53062;SDS011;40529;52.172;10.548;2023-04-03T07:25:50;4.72;;;1.73;;
53062;SDS011;40529;52.172;10.548;2023-04-03T07:28:17;4.45;;;1.52;;
53062;SDS011;40529;52.172;10.548;2023-04-03T07:30:48;8.43;;;1.73;;
53062;SDS011;40529;52.172;10.548;2023-04-03T07:35:40;5.82;;;1.88;;
53062;SDS011;40529;52.172;10.548;2023-04-03T07:38:06;4.85;;;1.40;;
53062;SDS011;40529;52.172;10.548;2023-04-03T07:40:32;3.38;;;1.40;;
53062;SDS011;40529;52.172;10.548;2023-04-03T07:42:59;6.88;;;2.67;;
53062;SDS011;40529;52.172;10.548;2023-04-03T07:45:25;4.75;;;1.52;;
53062;SDS011;40529;52.172;10.548;2023-04-03T07:47:51;2.95;;;1.25;;
53062;SDS011;40529;52.172;10.548;2023-04-03T07:50:17;3.88;;;1.40;;
53062;SDS011;40529;52.172;10.548;2023-04-03T07:52:44;5.82;;;1.75;;
53062;SDS011;40529;52.172;10.548;2023-04-03T07:55:11;4.13;;;1.65;;
53062;SDS011;40529;52.172;10.548;2023-04-03T07:57:37;6.13;;;1.42;;
53062;SDS011;40529;52.172;10.548;2023-04-03T08:00:04;5.85;;;1.52;;
53062;SDS011;40529;52.172;10.548;2023-04-03T08:02:30;4.20;;;1.60;;
53062;SDS011;40529;52.172;10.548;2023-04-03T08:04:59;4.32;;;1.30;;
53062;SDS011;40529;52.172;10.548;2023-04-03T08:07:25;5.88;;;1.55;;
53062;SDS011;40529;52.172;10.548;2023-04-03T08:09:52;4.70;;;1.40;;
53062;SDS011;40529;52.172;10.548;2023-04-03T08:12:18;6.53;;;1.52;;
53062;SDS011;40529;52.172;10.548;2023-04-03T08:14:44;6.70;;;1.33;;
53062;SDS011;40529;52.172;10.548;2023-04-03T08:17:10;7.70;;;1.92;;
53062;SDS011;40529;52.172;10.548;2023-04-03T08:19:39;4.68;;;1.20;;
53062;SDS011;40529;52.172;10.548;2023-04-03T08:22:06;5.68;;;1.55;;
53062;SDS011;40529;52.172;10.548;2023-04-03T08:24:35;4.13;;;1.27;;
53062;SDS011;40529;52.172;10.548;2023-04-03T08:27:01;4.43;;;1.10;;
53062;SDS011;40529;52.172;10.548;2023-04-03T08:29:27;5.57;;;1.40;;
53062;SDS011;40529;52.172;10.548;2023-04-03T08:31:53;9.15;;;1.63;;
53062;SDS011;40529;52.172;10.548;2023-04-03T08:34:19;6.30;;;1.27;;
53062;SDS011;40529;52.172;10.548;2023-04-03T08:36:46;4.63;;;1.85;;
53062;SDS011;40529;52.172;10.548;2023-04-03T08:39:12;4.68;;;1.45;;
53062;SDS011;40529;52.172;10.548;2023-04-03T08:41:39;5.15;;;1.95;;
53062;SDS011;40529;52.172;10.548;2023-04-03T08:44:10;4.70;;;1.45;;
53062;SDS011;40529;52.172;10.548;2023-04-03T08:46:47;4.45;;;0.95;;
53062;SDS011;40529;52.172;10.548;2023-04-03T08:49:33;2.33;;;0.88;;
53062;SDS011;40529;52.172;10.548;2023-04-03T08:52:08;4.80;;;1.05;;
53062;SDS011;40529;52.172;10.548;2023-04-03T08:54:35;3.35;;;0.90;;
53062;SDS011;40529;52.172;10.548;2023-04-03T08:57:03;4.05;;;1.30;;
53062;SDS011;40529;52.172;10.548;2023-04-03T08:59:33;3.50;;;1.20;;
53062;SDS011;40529;52.172;10.548;2023-04-03T09:02:01;3.95;;;1.30;;
53062;SDS011;40529;52.172;10.548;2023-04-03T09:04:29;5.55;;;1.40;;
53062;SDS011;40529;52.172;10.548;2023-04-03T09:06:59;4.03;;;1.40;;
53062;SDS011;40529;52.172;10.548;2023-04-03T09:14:37;4.93;;;1.33;;
53062;SDS011;40529;52.172;10.548;2023-04-03T09:17:27;5.93;;;1.13;;
53062;SDS011;40529;52.172;10.548;2023-04-03T09:22:23;2.83;;;1.13;;
53062;SDS011;40529;52.172;10.548;2023-04-03T09:24:53;2.83;;;1.00;;
53062;SDS011;40529;52.172;10.548;2023-04-03T09:27:22;3.25;;;1.13;;
53062;SDS011;40529;52.172;10.548;2023-04-03T09:29:48;3.20;;;1.17;;
53062;SDS011;40529;52.172;10.548;2023-04-03T09:32:49;2.95;;;0.70;;
53062;SDS011;40529;52.172;10.548;2023-04-03T09:35:21;4.68;;;1.27;;
53062;SDS011;40529;52.172;10.548;2023-04-03T09:37:50;3.42;;;0.93;;
53062;SDS011;40529;52.172;10.548;2023-04-03T09:42:53;3.05;;;0.95;;
53062;SDS011;40529;52.172;10.548;2023-04-03T09:45:24;3.80;;;0.90;;
53062;SDS011;40529;52.172;10.548;2023-04-03T09:48:08;3.03;;;1.00;;
53062;SDS011;40529;52.172;10.548;2023-04-03T09:50:34;2.20;;;0.88;;
53062;SDS011;40529;52.172;10.548;2023-04-03T09:53:11;2.45;;;0.85;;
53062;SDS011;40529;52.172;10.548;2023-04-03T09:55:51;4.53;;;1.00;;
53062;SDS011;40529;52.172;10.548;2023-04-03T09:58:24;1.77;;;0.80;;
53062;SDS011;40529;52.172;10.548;2023-04-03T10:00:57;2.42;;;0.90;;
53062;SDS011;40529;52.172;10.548;2023-04-03T10:03:31;5.15;;;1.13;;
53062;SDS011;40529;52.172;10.548;2023-04-03T10:05:58;3.45;;;0.90;;
53062;SDS011;40529;52.172;10.548;2023-04-03T10:08:26;2.50;;;0.80;;
53062;SDS011;40529;52.172;10.548;2023-04-03T10:11:12;4.60;;;1.08;;
53062;SDS011;40529;52.172;10.548;2023-04-03T10:13:55;2.47;;;0.80;;
53062;SDS011;40529;52.172;10.548;2023-04-03T10:34:47;1.50;;;0.90;;
53062;SDS011;40529;52.172;10.548;2023-04-03T10:37:23;3.78;;;1.08;;
53062;SDS011;40529;52.172;10.548;2023-04-03T10:45:20;4.28;;;2.50;;
53062;SDS011;40529;52.172;10.548;2023-04-03T10:50:38;2.35;;;0.80;;
53062;SDS011;40529;52.172;10.548;2023-04-03T10:55:34;2.38;;;1.00;;
53062;SDS011;40529;52.172;10.548;2023-04-03T10:58:02;2.35;;;1.00;;
53062;SDS011;40529;52.172;10.548;2023-04-03T11:00:45;2.30;;;0.93;;
53062;SDS011;40529;52.172;10.548;2023-04-03T11:03:22;1.85;;;0.93;;
53062;SDS011;40529;52.172;10.548;2023-04-03T11:05:51;3.58;;;1.00;;
53062;SDS011;40529;52.172;10.548;2023-04-03T11:10:45;3.15;;;1.00;;
53062;SDS011;40529;52.172;10.548;2023-04-03T11:15:39;3.95;;;1.10;;
53062;SDS011;40529;52.172;10.548;2023-04-03T11:18:06;2.55;;;0.80;;
53062;SDS011;40529;52.172;10.548;2023-04-03T11:20:34;3.38;;;1.20;;
53062;SDS011;40529;52.172;10.548;2023-04-03T11:25:32;5.00;;;1.07;;
53062;SDS011;40529;52.172;10.548;2023-04-03T11:28:00;6.53;;;2.17;;
53062;SDS011;40529;52.172;10.548;2023-04-03T11:35:54;3.45;;;1.60;;
53062;SDS011;40529;52.172;10.548;2023-04-03T11:38:25;3.92;;;1.90;;
53062;SDS011;40529;52.172;10.548;2023-04-03T11:40:54;4.72;;;1.10;;
53062;SDS011;40529;52.172;10.548;2023-04-03T11:45:57;3.67;;;1.00;;
53062;SDS011;40529;52.172;10.548;2023-04-03T11:50:54;1.85;;;0.80;;
53062;SDS011;40529;52.172;10.548;2023-04-03T11:53:31;1.70;;;0.88;;
53062;SDS011;40529;52.172;10.548;2023-04-03T11:56:02;2.60;;;1.00;;
53062;SDS011;40529;52.172;10.548;2023-04-03T12:01:10;3.30;;;1.10;;
53062;SDS011;40529;52.172;10.548;2023-04-03T12:08:43;2.60;;;1.02;;
53062;SDS011;40529;52.172;10.548;2023-04-03T12:16:06;4.03;;;0.90;;
53062;SDS011;40529;52.172;10.548;2023-04-03T12:18:44;4.18;;;1.00;;
53062;SDS011;40529;52.172;10.548;2023-04-03T12:21:12;3.80;;;1.10;;
53062;SDS011;40529;52.172;10.548;2023-04-03T12:24:23;3.05;;;1.00;;
53062;SDS011;40529;52.172;10.548;2023-04-03T12:26:32;2.95;;;1.10;;
53062;SDS011;40529;52.172;10.548;2023-04-03T12:29:01;2.03;;;0.93;;
53062;SDS011;40529;52.172;10.548;2023-04-03T12:31:33;3.83;;;1.47;;
53062;SDS011;40529;52.172;10.548;2023-04-03T12:39:32;2.55;;;0.93;;
53062;SDS011;40529;52.172;10.548;2023-04-03T12:47:04;1.77;;;0.90;;
53062;SDS011;40529;52.172;10.548;2023-04-03T12:49:39;2.50;;;0.90;;
53062;SDS011;40529;52.172;10.548;2023-04-03T12:52:19;3.35;;;1.10;;
53062;SDS011;40529;52.172;10.548;2023-04-03T12:54:46;3.92;;;0.85;;
53062;SDS011;40529;52.172;10.548;2023-04-03T12:57:19;3.72;;;1.08;;
53062;SDS011;40529;52.172;10.548;2023-04-03T12:59:46;2.53;;;0.90;;
53062;SDS011;40529;52.172;10.548;2023-04-03T13:02:31;2.67;;;0.93;;
53062;SDS011;40529;52.172;10.548;2023-04-03T13:04:59;2.25;;;1.10;;
53062;SDS011;40529;52.172;10.548;2023-04-03T13:07:34;2.97;;;1.00;;
53062;SDS011;40529;52.172;10.548;2023-04-03T13:10:09;1.83;;;0.90;;
53062;SDS011;40529;52.172;10.548;2023-04-03T13:15:13;3.78;;;0.98;;
53062;SDS011;40529;52.172;10.548;2023-04-03T13:17:39;2.17;;;0.90;;
53062;SDS011;40529;52.172;10.548;2023-04-03T13:20:12;2.10;;;0.90;;
53062;SDS011;40529;52.172;10.548;2023-04-03T13:22:47;3.53;;;0.90;;
53062;SDS011;40529;52.172;10.548;2023-04-03T13:25:14;2.58;;;0.93;;
53062;SDS011;40529;52.172;10.548;2023-04-03T13:27:41;2.20;;;0.90;;
53062;SDS011;40529;52.172;10.548;2023-04-03T13:30:24;2.45;;;0.90;;
53062;SDS011;40529;52.172;10.548;2023-04-03T13:32:52;1.80;;;0.80;;
53062;SDS011;40529;52.172;10.548;2023-04-03T13:35:29;3.97;;;1.00;;
53062;SDS011;40529;52.172;10.548;2023-04-03T13:38:05;2.03;;;1.08;;
53062;SDS011;40529;52.172;10.548;2023-04-03T13:40:33;2.65;;;0.98;;
53062;SDS011;40529;52.172;10.548;2023-04-03T13:43:00;2.65;;;1.00;;
53062;SDS011;40529;52.172;10.548;2023-04-03T13:45:27;3.33;;;1.30;;
53062;SDS011;40529;52.172;10.548;2023-04-03T13:50:53;4.20;;;1.23;;
53062;SDS011;40529;52.172;10.548;2023-04-03T13:53:20;3.58;;;1.00;;
53062;SDS011;40529;52.172;10.548;2023-04-03T13:55:57;1.08;;;0.80;;
53062;SDS011;40529;52.172;10.548;2023-04-03T13:58:28;3.05;;;1.10;;
53062;SDS011;40529;52.172;10.548;2023-04-03T14:03:57;2.38;;;0.80;;
53062;SDS011;40529;52.172;10.548;2023-04-03T14:06:23;2.67;;;1.00;;
53062;SDS011;40529;52.172;10.548;2023-04-03T14:08:49;2.35;;;1.10;;
53062;SDS011;40529;52.172;10.548;2023-04-03T14:13:42;10.73;;;1.20;;
53062;SDS011;40529;52.172;10.548;2023-04-03T14:16:11;2.55;;;0.93;;
53062;SDS011;40529;52.172;10.548;2023-04-03T14:18:38;1.90;;;0.90;;
53062;SDS011;40529;52.172;10.548;2023-04-03T14:21:04;2.65;;;0.90;;
53062;SDS011;40529;52.172;10.548;2023-04-03T14:23:30;4.40;;;0.88;;
53062;SDS011;40529;52.172;10.548;2023-04-03T14:25:58;3.53;;;0.93;;
53062;SDS011;40529;52.172;10.548;2023-04-03T14:28:25;3.35;;;1.20;;
53062;SDS011;40529;52.172;10.548;2023-04-03T14:30:51;1.42;;;1.00;;
53062;SDS011;40529;52.172;10.548;2023-04-03T14:33:20;2.55;;;1.00;;
53062;SDS011;40529;52.172;10.548;2023-04-03T14:35:46;3.53;;;0.98;;
53062;SDS011;40529;52.172;10.548;2023-04-03T14:38:27;3.90;;;0.90;;
53062;SDS011;40529;52.172;10.548;2023-04-03T14:40:53;2.83;;;1.30;;
53062;SDS011;40529;52.172;10.548;2023-04-03T14:43:20;4.55;;;1.05;;
53062;SDS011;40529;52.172;10.548;2023-04-03T14:45:49;8.32;;;2.45;;
53062;SDS011;40529;52.172;10.548;2023-04-03T14:48:23;2.22;;;0.90;;
53062;SDS011;40529;52.172;10.548;2023-04-03T14:50:50;1.70;;;0.88;;
53062;SDS011;40529;52.172;10.548;2023-04-03T14:53:17;2.92;;;1.17;;
53062;SDS011;40529;52.172;10.548;2023-04-03T14:55:47;1.50;;;0.82;;
53062;SDS011;40529;52.172;10.548;2023-04-03T14:58:14;2.92;;;1.10;;
53062;SDS011;40529;52.172;10.548;2023-04-03T15:00:40;2.28;;;1.00;;
53062;SDS011;40529;52.172;10.548;2023-04-03T15:03:10;4.90;;;0.90;;
53062;SDS011;40529;52.172;10.548;2023-04-03T15:05:38;4.18;;;1.73;;
53062;SDS011;40529;52.172;10.548;2023-04-03T15:08:04;2.42;;;1.20;;
53062;SDS011;40529;52.172;10.548;2023-04-03T15:10:30;4.07;;;1.20;;
53062;SDS011;40529;52.172;10.548;2023-04-03T15:12:57;7.13;;;1.25;;
53062;SDS011;40529;52.172;10.548;2023-04-03T15:15:23;3.83;;;1.55;;
53062;SDS011;40529;52.172;10.548;2023-04-03T15:17:50;1.38;;;0.80;;
53062;SDS011;40529;52.172;10.548;2023-04-03T15:20:19;3.17;;;0.93;;
53062;SDS011;40529;52.172;10.548;2023-04-03T15:22:46;1.95;;;0.80;;
53062;SDS011;40529;52.172;10.548;2023-04-03T15:25:12;3.17;;;1.10;;
53062;SDS011;40529;52.172;10.548;2023-04-03T15:27:38;1.63;;;1.08;;
53062;SDS011;40529;52.172;10.548;2023-04-03T15:30:06;2.30;;;1.00;;
53062;SDS011;40529;52.172;10.548;2023-04-03T15:32:32;5.03;;;1.05;;
53062;SDS011;40529;52.172;10.548;2023-04-03T15:35:00;4.40;;;1.17;;
53062;SDS011;40529;52.172;10.548;2023-04-03T15:37:26;4.43;;;1.23;;
53062;SDS011;40529;52.172;10.548;2023-04-03T15:39:52;3.10;;;0.98;;
53062;SDS011;40529;52.172;10.548;2023-04-03T15:42:19;4.13;;;1.00;;
53062;SDS011;40529;52.172;10.548;2023-04-03T15:44:45;3.25;;;1.10;;
53062;SDS011;40529;52.172;10.548;2023-04-03T15:47:11;1.60;;;0.93;;
53062;SDS011;40529;52.172;10.548;2023-04-03T15:49:37;2.72;;;1.15;;
53062;SDS011;40529;52.172;10.548;2023-04-03T15:52:03;2.30;;;1.30;;
53062;SDS011;40529;52.172;10.548;2023-04-03T15:54:30;3.33;;;1.00;;
53062;SDS011;40529;52.172;10.548;2023-04-03T15:56:56;2.20;;;1.10;;
53062;SDS011;40529;52.172;10.548;2023-04-03T15:59:22;2.88;;;1.00;;
53062;SDS011;40529;52.172;10.548;2023-04-03T16:01:48;4.60;;;1.10;;
53062;SDS011;40529;52.172;10.548;2023-04-03T16:04:15;2.67;;;0.82;;
53062;SDS011;40529;52.172;10.548;2023-04-03T16:06:41;3.30;;;1.20;;
53062;SDS011;40529;52.172;10.548;2023-04-03T16:09:08;2.90;;;1.05;;
53062;SDS011;40529;52.172;10.548;2023-04-03T16:11:35;2.63;;;0.90;;
53062;SDS011;40529;52.172;10.548;2023-04-03T16:14:04;2.28;;;1.33;;
53062;SDS011;40529;52.172;10.548;2023-04-03T16:16:30;4.72;;;1.00;;
53062;SDS011;40529;52.172;10.548;2023-04-03T16:18:56;1.98;;;1.05;;